Time;durP1;ratioP1;P1;durP2;ratioP2;P2;SDS_P1;SDS_P2;PMS_P1;PMS_P2;Temp;Humidity;BMP_temperature;BMP_pressure;BME280_temperature;BME280_humidity;BME280_pressure;Samples;Min_cycle;Max_cycle;Signal;HPM_P1;HPM_P2
2023/09/19 00:01:12;;;;;;;4.00;3.70;;;;;;;17.17;82.79;98656.34;5112590;28;20203;-57
2023/09/19 00:03:38;;;;;;;4.25;3.80;;;;;;;16.86;83.88;98606.00;5112589;28;20171;-57
2023/09/19 00:06:05;;;;;;;5.20;3.80;;;;;;;16.99;84.68;98651.00;5112634;28;20176;-57
2023/09/19 00:08:31;;;;;;;3.70;3.38;;;;;;;16.93;85.71;98653.34;5112654;28;20179;-57
2023/09/19 00:11:04;;;;;;;4.05;3.63;;;;;;;16.65;86.76;98613.19;5112543;28;20202;-57
2023/09/19 00:13:30;;;;;;;3.70;3.28;;;;;;;16.58;87.13;98606.03;5112578;28;20219;-57
2023/09/19 00:15:58;;;;;;;4.78;3.80;;;;;;;16.74;87.06;98624.63;5112428;28;20231;-57
2023/09/19 00:18:28;;;;;;;6.13;4.35;;;;;;;16.63;87.42;98614.28;5069251;28;20203;-57
2023/09/19 00:20:57;;;;;;;3.67;3.40;;;;;;;16.87;86.52;98638.22;5069196;28;20244;-57
2023/09/19 00:23:22;;;;;;;4.43;3.80;;;;;;;16.94;85.59;98628.84;5069367;28;20192;-58
2023/09/19 00:25:48;;;;;;;5.47;4.10;;;;;;;16.75;86.47;98615.81;5069260;28;20730;-58
2023/09/19 00:28:14;;;;;;;4.18;3.60;;;;;;;16.86;86.38;98639.19;5069192;28;20189;-58
2023/09/19 00:30:42;;;;;;;4.35;3.60;;;;;;;16.77;85.69;98621.72;5069250;28;20648;-57
2023/09/19 00:33:08;;;;;;;3.85;3.53;;;;;;;16.83;86.27;98645.50;5069200;28;20595;-58
2023/09/19 00:35:33;;;;;;;3.90;3.60;;;;;;;16.86;85.80;98636.56;5069227;28;20187;-58
2023/09/19 00:37:59;;;;;;;4.45;4.05;;;;;;;16.66;85.57;98603.56;5069140;28;20189;-58
2023/09/19 00:40:26;;;;;;;5.45;3.83;;;;;;;16.79;85.93;98635.47;5069088;28;20200;-58
2023/09/19 00:42:51;;;;;;;5.45;3.55;;;;;;;16.92;85.86;98647.28;5069004;28;20189;-58
2023/09/19 00:45:17;;;;;;;4.32;3.95;;;;;;;16.92;85.79;98633.41;5068900;28;20224;-57
2023/09/19 00:47:51;;;;;;;4.50;4.10;;;;;;;16.78;85.73;98616.34;5068950;28;20722;-57
2023/09/19 00:50:19;;;;;;;4.68;3.70;;;;;;;16.83;85.52;98615.94;5105949;28;20187;-58
2023/09/19 00:52:46;;;;;;;4.82;3.75;;;;;;;16.81;85.52;98618.69;5112088;28;20656;-58
2023/09/19 00:55:15;;;;;;;5.15;3.90;;;;;;;16.72;85.69;98611.69;5111926;28;20168;-57
2023/09/19 00:57:42;;;;;;;4.97;3.72;;;;;;;16.50;86.18;98592.84;5111739;28;20179;-58
2023/09/19 01:00:12;;;;;;;5.57;3.92;;;;;;;16.68;86.18;98620.75;5112117;28;20281;-58
2023/09/19 01:02:37;;;;;;;3.67;3.40;;;;;;;16.50;86.23;98592.84;5111913;28;20178;-57
2023/09/19 01:05:06;;;;;;;3.88;3.50;;;;;;;16.49;86.61;98612.91;5111804;28;20182;-58
2023/09/19 01:07:33;;;;;;;4.18;3.78;;;;;;;16.58;87.61;98637.41;5111776;28;20176;-58
2023/09/19 01:09:59;;;;;;;6.93;4.03;;;;;;;16.62;87.09;98638.78;5111762;28;20179;-58
2023/09/19 01:13:12;;;;;;;5.00;3.75;;;;;;;16.65;87.24;98641.09;5111692;28;20194;-57
2023/09/19 01:15:59;;;;;;;3.72;3.42;;;;;;;16.44;88.48;98630.78;5028770;28;20280;-57
2023/09/19 01:18:42;;;;;;;4.28;3.88;;;;;;;16.47;88.65;98627.91;4989315;28;20215;-57
2023/09/19 01:21:26;;;;;;;6.05;3.58;;;;;;;16.46;89.14;98634.09;4989494;28;20294;-57
2023/09/19 01:23:51;;;;;;;4.45;4.05;;;;;;;16.44;88.94;98627.34;4989429;28;20222;-57
2023/09/19 01:26:29;;;;;;;4.00;3.65;;;;;;;16.44;88.73;98625.56;4989290;28;20215;-56
2023/09/19 01:29:19;;;;;;;4.00;3.67;;;;;;;16.44;89.16;98625.56;4989181;28;20282;-57
2023/09/19 01:31:47;;;;;;;3.83;3.53;;;;;;;16.33;89.54;98606.56;4989173;28;20621;-56
2023/09/19 01:34:12;;;;;;;4.10;3.70;;;;;;;16.35;89.72;98620.28;4949813;29;20245;-57
2023/09/19 01:36:38;;;;;;;4.18;3.85;;;;;;;16.30;89.83;98601.59;4950573;29;20185;-58
2023/09/19 01:39:10;;;;;;;6.75;4.25;;;;;;;16.11;90.14;98581.53;4950635;29;20188;-57
2023/09/19 01:42:23;;;;;;;4.03;3.38;;;;;;;16.16;88.89;98574.09;4950548;29;20696;-57
2023/09/19 01:45:04;;;;;;;3.80;3.50;;;;;;;16.35;88.45;98596.78;4912453;29;20226;-58
2023/09/19 01:47:43;;;;;;;5.10;3.47;;;;;;;16.13;89.74;98573.53;4912530;29;20188;-58
2023/09/19 01:50:25;;;;;;;5.95;3.60;;;;;;;16.36;89.70;98606.25;4943183;29;20197;-57
2023/09/19 01:53:22;;;;;;;4.30;3.90;;;;;;;16.39;89.67;98612.06;4981809;28;20671;-57
2023/09/19 01:55:49;;;;;;;4.45;4.05;;;;;;;16.11;89.39;98578.91;4969651;28;20195;-58
2023/09/19 01:58:26;;;;;;;3.78;3.47;;;;;;;16.34;89.67;98609.03;4950124;29;20185;-58
2023/09/19 02:00:54;;;;;;;4.07;3.60;;;;;;;16.31;89.44;98601.47;4950396;29;20243;-57
2023/09/19 02:03:22;;;;;;;3.88;3.58;;;;;;;16.28;89.17;98606.94;4950700;28;20189;-57
2023/09/19 02:05:53;;;;;;;4.60;3.67;;;;;;;16.07;89.94;98581.91;4953766;29;20189;-58
2023/09/19 02:08:20;;;;;;;4.35;3.45;;;;;;;16.09;90.66;98585.22;4953750;29;20197;-58
2023/09/19 02:10:49;;;;;;;4.32;3.92;;;;;;;15.97;91.38;98594.13;4953826;29;20278;-58
2023/09/19 02:13:19;;;;;;;4.43;3.78;;;;;;;15.94;92.84;98610.03;4953460;29;20603;-58
2023/09/19 02:15:46;;;;;;;6.10;4.03;;;;;;;15.84;93.63;98599.59;4953715;29;20559;-58
2023/09/19 02:18:11;;;;;;;4.22;3.85;;;;;;;15.45;95.39;98576.13;4958703;28;20184;-57
2023/09/19 02:20:37;;;;;;;3.95;3.60;;;;;;;15.78;94.43;98607.09;4972901;28;20670;-58
2023/09/19 02:23:03;;;;;;;4.47;4.03;;;;;;;15.61;94.52;98576.41;4973018;28;20192;-57
2023/09/19 02:25:29;;;;;;;6.63;3.90;;;;;;;15.49;94.67;98574.88;4972811;28;20263;-57
2023/09/19 02:27:54;;;;;;;4.38;3.92;;;;;;;15.49;94.60;98562.66;4972739;28;20264;-57
2023/09/19 02:30:25;;;;;;;3.70;3.40;;;;;;;15.44;94.53;98554.41;5009975;28;20632;-57
2023/09/19 02:32:51;;;;;;;4.75;3.85;;;;;;;15.71;95.08;98587.72;5072085;28;20192;-58
2023/09/19 02:35:19;;;;;;;4.07;3.58;;;;;;;15.64;94.73;98565.75;5114648;28;20175;-57
2023/09/19 02:37:45;;;;;;;7.93;3.63;;;;;;;15.48;95.67;98549.75;5114322;28;20179;-58
2023/09/19 02:40:18;;;;;;;3.85;3.55;;;;;;;15.71;95.00;98570.31;5114205;28;20200;-58
2023/09/19 02:42:52;;;;;;;4.80;3.75;;;;;;;15.80;95.05;98586.94;5113974;28;20603;-58
2023/09/19 02:45:19;;;;;;;4.03;3.63;;;;;;;15.66;94.90;98569.03;5114166;28;20671;-57
2023/09/19 02:47:45;;;;;;;4.18;3.40;;;;;;;15.44;96.25;98569.22;5114125;28;20187;-57
2023/09/19 02:50:12;;;;;;;3.83;3.53;;;;;;;15.56;96.62;98596.88;5114032;28;20212;-57
2023/09/19 02:52:38;;;;;;;4.53;3.80;;;;;;;15.46;95.84;98562.91;5114071;28;20163;-58
2023/09/19 02:55:05;;;;;;;6.18;4.15;;;;;;;15.40;95.76;98554.81;5114051;28;20190;-57
2023/09/19 02:57:33;;;;;;;8.27;4.18;;;;;;;15.59;95.87;98591.38;5113922;28;20221;-57
2023/09/19 03:00:00;;;;;;;3.90;3.60;;;;;;;15.50;95.87;98568.69;5113843;28;20239;-57
2023/09/19 03:02:27;;;;;;;6.35;3.92;;;;;;;15.35;96.07;98550.00;5113879;28;20259;-57
2023/09/19 03:04:53;;;;;;;6.60;3.67;;;;;;;15.43;96.08;98562.34;5113789;28;20229;-57
2023/09/19 03:07:18;;;;;;;4.00;3.67;;;;;;;15.57;96.56;98588.91;5113783;28;20176;-57
2023/09/19 03:09:44;;;;;;;4.22;3.72;;;;;;;15.27;97.81;98560.19;5113728;28;20622;-58
2023/09/19 03:12:10;;;;;;;4.80;3.45;;;;;;;15.31;98.02;98573.81;5113570;28;20555;-57
2023/09/19 03:14:36;;;;;;;4.32;3.90;;;;;;;15.32;98.59;98571.09;5113098;28;20176;-58
2023/09/19 03:17:04;;;;;;;4.32;3.92;;;;;;;15.36;99.32;98587.31;5112950;28;20195;-57
2023/09/19 03:19:33;;;;;;;8.27;4.60;;;;;;;15.26;99.16;98570.75;5113524;28;20195;-57
2023/09/19 03:21:58;;;;;;;4.13;3.80;;;;;;;15.50;98.28;98584.34;5113417;28;20199;-56
2023/09/19 03:24:24;;;;;;;7.10;4.00;;;;;;;15.45;97.12;98576.13;5113430;28;20274;-57
2023/09/19 03:26:49;;;;;;;4.07;3.67;;;;;;;15.52;96.89;98577.22;5113358;28;20167;-57
2023/09/19 03:29:16;;;;;;;4.95;3.90;;;;;;;15.62;96.88;98583.31;5113523;28;20274;-57
2023/09/19 03:31:42;;;;;;;4.30;3.90;;;;;;;15.61;95.26;98577.25;5069969;28;20185;-57
2023/09/19 03:34:08;;;;;;;4.13;3.83;;;;;;;15.51;94.75;98559.94;5070151;28;20730;-56
2023/09/19 03:36:34;;;;;;;4.28;3.50;;;;;;;15.60;94.74;98574.78;5029970;28;20195;-56
2023/09/19 03:38:59;;;;;;;3.63;3.20;;;;;;;15.57;94.33;98554.19;5030244;28;20706;-57
2023/09/19 03:41:25;;;;;;;4.07;3.65;;;;;;;15.72;94.34;98586.75;5029894;28;20211;-57
2023/09/19 03:43:50;;;;;;;4.72;4.32;;;;;;;15.65;94.59;98564.78;5030068;28;20213;-57
2023/09/19 03:46:16;;;;;;;4.50;4.05;;;;;;;15.54;94.53;98554.44;5030042;28;20247;-57
2023/09/19 03:48:42;;;;;;;3.70;3.40;;;;;;;15.86;94.01;98586.41;5029907;28;20702;-57
2023/09/19 03:51:07;;;;;;;4.10;3.70;;;;;;;15.69;94.41;98563.56;5029810;28;20277;-57
2023/09/19 03:53:33;;;;;;;3.78;3.47;;;;;;;15.72;93.80;98552.84;5029745;28;20265;-57
2023/09/19 03:55:59;;;;;;;3.70;3.33;;;;;;;15.77;94.05;98561.94;5009872;28;20187;-57
2023/09/19 03:58:25;;;;;;;5.75;3.63;;;;;;;15.91;93.93;98573.78;5010046;28;20211;-57
2023/09/19 04:00:51;;;;;;;4.00;3.70;;;;;;;15.76;93.97;98552.47;5009947;28;20210;-57
2023/09/19 04:03:20;;;;;;;4.65;4.25;;;;;;;15.85;93.57;98589.97;5024569;28;20222;-57
2023/09/19 04:05:49;;;;;;;5.00;3.58;;;;;;;15.71;93.17;98572.91;4990176;28;20242;-57
2023/09/19 04:08:14;;;;;;;4.53;4.13;;;;;;;15.59;92.17;98552.25;5005758;28;20195;-57
2023/09/19 04:10:46;;;;;;;4.82;3.95;;;;;;;15.86;92.48;98589.03;5010042;28;20333;-58
2023/09/19 04:13:11;;;;;;;4.13;3.63;;;;;;;15.49;93.60;98552.25;5009814;28;20689;-57
2023/09/19 04:15:37;;;;;;;3.75;3.45;;;;;;;15.60;94.15;98587.81;5009902;28;20183;-57
2023/09/19 04:18:03;;;;;;;4.35;3.58;;;;;;;15.66;94.92;98584.69;5009890;28;20183;-57
2023/09/19 04:20:29;;;;;;;4.40;3.97;;;;;;;15.60;95.46;98575.63;5009705;28;20246;-57
2023/09/19 04:22:54;;;;;;;4.00;3.53;;;;;;;15.52;95.97;98574.63;5010144;28;20311;-58
2023/09/19 04:25:20;;;;;;;4.05;3.75;;;;;;;15.64;95.09;98581.41;5009778;28;20186;-59
2023/09/19 04:27:46;;;;;;;5.95;3.80;;;;;;;15.67;94.45;98586.31;5058974;28;20199;-58
2023/09/19 04:30:12;;;;;;;4.18;3.78;;;;;;;15.70;94.81;98599.13;5069312;28;20615;-58
2023/09/19 04:32:41;;;;;;;3.40;3.10;;;;;;;15.65;93.45;98572.59;5069346;28;20191;-59
2023/09/19 04:35:08;;;;;;;4.43;4.03;;;;;;;15.75;93.58;98605.59;5069251;28;20173;-57
2023/09/19 04:37:39;;;;;;;5.30;3.88;;;;;;;15.64;93.56;98574.38;5104790;28;20230;-57
2023/09/19 04:40:10;;;;;;;4.28;3.80;;;;;;;15.65;93.37;98578.66;5068943;28;20330;-57
2023/09/19 04:42:35;;;;;;;5.60;3.75;;;;;;;15.50;93.39;98559.09;5069062;28;20767;-58
2023/09/19 04:45:01;;;;;;;4.13;3.72;;;;;;;15.73;93.28;98593.63;5069028;28;20272;-57
2023/09/19 04:47:26;;;;;;;4.22;3.83;;;;;;;15.68;93.71;98593.22;5068869;28;20181;-58
2023/09/19 04:49:51;;;;;;;17.92;4.35;;;;;;;15.73;93.40;98598.84;5068981;28;20220;-58
2023/09/19 04:52:20;;;;;;;5.80;3.97;;;;;;;15.79;92.73;98593.94;5068847;28;20647;-57
2023/09/19 04:54:46;;;;;;;4.28;3.83;;;;;;;15.83;92.92;98592.72;5068798;28;20197;-58
2023/09/19 04:57:12;;;;;;;3.97;3.67;;;;;;;15.59;93.05;98562.69;5068907;28;20177;-58
2023/09/19 04:59:38;;;;;;;5.40;3.65;;;;;;;15.62;93.49;98578.09;5068768;28;20235;-57
2023/09/19 05:02:04;;;;;;;4.05;3.75;;;;;;;15.47;93.96;98576.78;5068795;28;20213;-58
2023/09/19 05:04:30;;;;;;;4.20;3.90;;;;;;;15.52;94.42;98609.34;5068783;28;20585;-57
2023/09/19 05:06:55;;;;;;;3.47;3.28;;;;;;;15.61;93.96;98598.13;5068754;28;20184;-58
2023/09/19 05:09:20;;;;;;;4.20;3.80;;;;;;;15.44;93.09;98564.00;5068646;28;20185;-57
2023/09/19 05:11:46;;;;;;;3.85;3.33;;;;;;;15.52;92.48;98572.00;5102414;28;20596;-58
2023/09/19 05:14:11;;;;;;;4.72;3.72;;;;;;;15.51;93.18;98575.59;5111634;28;20678;-57
2023/09/19 05:16:37;;;;;;;4.15;3.53;;;;;;;15.53;93.31;98565.84;5111600;28;20179;-57
2023/09/19 05:19:02;;;;;;;3.90;3.50;;;;;;;15.63;92.27;98564.09;5111528;28;20205;-57
2023/09/19 05:21:31;;;;;;;4.55;3.70;;;;;;;15.64;92.03;98547.47;5111569;28;20317;-57
2023/09/19 05:23:56;;;;;;;4.00;3.60;;;;;;;15.96;91.58;98590.69;5111490;28;20573;-58
2023/09/19 05:26:22;;;;;;;4.93;3.58;;;;;;;15.92;90.95;98560.59;5111491;28;20321;-57
2023/09/19 05:28:50;;;;;;;4.15;3.72;;;;;;;16.01;90.39;98565.00;5111569;28;20645;-56
2023/09/19 05:31:16;;;;;;;3.83;3.47;;;;;;;16.12;89.43;98587.56;5111380;28;20188;-57
2023/09/19 05:33:42;;;;;;;3.70;3.40;;;;;;;16.00;89.99;98568.59;5111322;28;20249;-57
2023/09/19 05:36:10;;;;;;;4.07;3.67;;;;;;;15.99;89.99;98566.09;5111372;28;20650;-57
2023/09/19 05:38:36;;;;;;;3.72;3.42;;;;;;;16.07;89.79;98568.84;5112228;28;20286;-58
2023/09/19 05:41:02;;;;;;;4.95;3.42;;;;;;;16.04;89.40;98558.69;5115380;28;20207;-58
2023/09/19 05:43:27;;;;;;;3.55;3.25;;;;;;;16.08;89.62;98571.34;5115567;28;20182;-57
2023/09/19 05:45:56;;;;;;;5.18;3.50;;;;;;;16.10;89.52;98584.25;5115446;28;20261;-57
2023/09/19 05:48:22;;;;;;;4.53;3.72;;;;;;;16.23;89.50;98587.44;5114953;28;21097;-57
2023/09/19 05:50:48;;;;;;;4.05;3.50;;;;;;;16.40;88.44;98597.25;5114838;28;20198;-57
2023/09/19 05:53:14;;;;;;;4.90;3.60;;;;;;;16.46;88.12;98586.25;5114737;28;20248;-56
2023/09/19 05:55:40;;;;;;;4.07;3.65;;;;;;;16.52;87.06;98567.41;5114258;28;20652;-57
2023/09/19 05:58:05;;;;;;;4.00;3.50;;;;;;;16.65;86.90;98575.78;5114696;28;20212;-57
2023/09/19 06:00:31;;;;;;;6.03;3.55;;;;;;;16.67;86.37;98568.66;5114545;28;20206;-57
2023/09/19 06:02:58;;;;;;;5.10;3.80;;;;;;;16.84;85.19;98565.34;5114626;28;20613;-56
2023/09/19 06:05:26;;;;;;;4.43;3.55;;;;;;;17.09;84.88;98593.47;5114596;28;20545;-57
2023/09/19 06:07:52;;;;;;;4.10;3.67;;;;;;;17.19;84.76;98594.28;5114494;28;20172;-58
2023/09/19 06:10:20;;;;;;;5.35;3.72;;;;;;;17.37;84.39;98601.22;5114286;28;20549;-57
2023/09/19 06:12:46;;;;;;;7.45;4.07;;;;;;;17.49;83.38;98584.44;5114002;28;20195;-57
2023/09/19 06:15:18;;;;;;;3.47;3.28;;;;;;;17.82;81.65;98603.97;5114342;28;20175;-57
2023/09/19 06:17:48;;;;;;;5.38;3.47;;;;;;;17.97;80.23;98590.28;5113957;28;20549;-57
2023/09/19 06:20:14;;;;;;;4.97;3.50;;;;;;;18.08;78.47;98568.28;5113907;28;20297;-57
2023/09/19 06:22:41;;;;;;;4.32;3.65;;;;;;;18.19;78.33;98562.84;5114233;28;20266;-57
2023/09/19 06:25:07;;;;;;;4.20;3.17;;;;;;;18.57;77.48;98599.25;5114084;28;20180;-57
2023/09/19 06:27:36;;;;;;;3.97;3.08;;;;;;;18.64;75.72;98574.06;5114143;28;20181;-56
2023/09/19 06:30:01;;;;;;;3.50;3.20;;;;;;;18.75;75.11;98579.09;5114062;28;20256;-57
2023/09/19 06:32:27;;;;;;;4.28;3.47;;;;;;;18.69;75.06;98558.72;5050754;28;20193;-57
2023/09/19 06:34:57;;;;;;;3.45;3.15;;;;;;;18.90;74.65;98586.28;5050772;28;20193;-57
2023/09/19 06:37:23;;;;;;;3.63;3.33;;;;;;;18.82;73.99;98556.56;5050768;28;20189;-57
2023/09/19 06:39:49;;;;;;;3.45;3.15;;;;;;;19.06;73.91;98598.69;5050683;28;20177;-56
2023/09/19 06:42:17;;;;;;;4.57;3.42;;;;;;;19.02;73.13;98592.09;5050505;28;20640;-56
2023/09/19 06:44:43;;;;;;;3.72;3.42;;;;;;;18.84;72.19;98551.97;5050557;28;20612;-56
2023/09/19 06:47:09;;;;;;;3.58;3.28;;;;;;;19.10;72.76;98589.50;5050710;28;20276;-57
2023/09/19 06:49:35;;;;;;;5.05;3.28;;;;;;;19.12;72.94;98566.59;5010538;28;20273;-57
2023/09/19 06:52:00;;;;;;;5.00;3.60;;;;;;;19.35;71.52;98580.88;5010857;28;20277;-57
2023/09/19 06:54:31;;;;;;;5.90;3.53;;;;;;;19.35;71.85;98562.50;5010819;28;20191;-57
2023/09/19 06:56:58;;;;;;;4.03;3.45;;;;;;;19.55;71.02;98571.78;5010772;28;20629;-57
2023/09/19 06:59:24;;;;;;;5.68;2.95;;;;;;;19.45;71.36;98543.03;5010805;28;20183;-57
2023/09/19 07:01:50;;;;;;;4.32;3.40;;;;;;;19.80;70.94;98576.97;5010656;28;20248;-57
2023/09/19 07:04:19;;;;;;;3.72;3.30;;;;;;;19.72;71.27;98550.69;5061583;28;20246;-57
2023/09/19 07:06:45;;;;;;;3.42;3.13;;;;;;;20.06;70.54;98571.66;5070196;28;20685;-57
2023/09/19 07:09:12;;;;;;;5.25;3.40;;;;;;;20.15;72.41;98568.06;5070126;28;20282;-57
2023/09/19 07:11:38;;;;;;;4.78;3.45;;;;;;;20.28;73.30;98586.84;5070153;28;20279;-57
2023/09/19 07:14:03;;;;;;;4.07;3.67;;;;;;;20.09;74.94;98555.59;5069937;28;20299;-57
2023/09/19 07:16:29;;;;;;;5.20;3.50;;;;;;;20.41;73.82;98588.00;5070061;28;20231;-57
2023/09/19 07:18:55;;;;;;;4.85;3.70;;;;;;;20.28;74.88;98571.88;5069909;28;20194;-57
2023/09/19 07:21:21;;;;;;;5.90;4.03;;;;;;;20.33;74.71;98553.03;5105067;28;20217;-57
2023/09/19 07:23:46;;;;;;;5.90;4.03;;;;;;;20.59;74.67;98574.72;5113044;28;20542;-57
2023/09/19 07:26:12;;;;;;;7.13;3.65;;;;;;;20.69;75.75;98573.56;5113025;28;20171;-57
2023/09/19 07:28:37;;;;;;;5.55;3.70;;;;;;;20.75;75.24;98570.28;5112567;28;20171;-57
2023/09/19 07:31:09;;;;;;;5.72;3.50;;;;;;;20.70;74.91;98542.84;5112792;28;20311;-57
2023/09/19 07:33:35;;;;;;;6.35;4.05;;;;;;;20.92;73.40;98550.09;5112994;28;20231;-58
2023/09/19 07:36:01;;;;;;;3.88;3.58;;;;;;;21.16;72.27;98557.97;5112456;28;20581;-58
2023/09/19 07:38:26;;;;;;;6.43;3.40;;;;;;;21.18;72.12;98553.34;5112660;28;20261;-58
2023/09/19 07:40:52;;;;;;;4.28;3.70;;;;;;;21.01;71.89;98536.78;5112523;28;20636;-58
2023/09/19 07:43:17;;;;;;;11.05;4.75;;;;;;;21.03;72.15;98521.63;5112345;28;20171;-56
2023/09/19 07:45:43;;;;;;;4.03;3.63;;;;;;;21.02;72.20;98525.25;5112625;28;20213;-57
2023/09/19 07:48:14;;;;;;;4.40;4.00;;;;;;;21.06;70.91;98534.47;5112574;28;20221;-57
2023/09/19 07:50:43;;;;;;;8.52;4.43;;;;;;;21.22;70.20;98526.50;5112584;28;20179;-57
2023/09/19 07:53:08;;;;;;;5.35;4.10;;;;;;;21.54;69.97;98546.66;5112548;28;20249;-57
2023/09/19 07:55:34;;;;;;;5.32;3.95;;;;;;;21.75;69.49;98549.56;5112437;28;20216;-57
2023/09/19 07:57:59;;;;;;;3.60;3.28;;;;;;;21.73;68.66;98544.47;5112122;28;20497;-57
2023/09/19 08:00:25;;;;;;;9.35;4.68;;;;;;;21.78;67.84;98522.88;5111997;28;20214;-57
2023/09/19 08:02:52;;;;;;;7.80;4.88;;;;;;;22.00;68.22;98533.47;5111321;28;20163;-57
2023/09/19 08:05:18;;;;;;;4.10;3.65;;;;;;;22.15;67.21;98529.06;5112204;28;20171;-57
2023/09/19 08:07:49;;;;;;;4.60;3.47;;;;;;;22.12;65.72;98531.25;5112210;28;20558;-58
2023/09/19 08:10:16;;;;;;;3.88;3.55;;;;;;;22.37;65.91;98549.38;5112115;28;20187;-58
2023/09/19 08:12:48;;;;;;;5.28;3.97;;;;;;;22.01;65.53;98515.81;5111705;28;20236;-58
2023/09/19 08:15:19;;;;;;;5.45;3.70;;;;;;;21.98;65.91;98516.19;5112056;28;20170;-58
2023/09/19 08:17:45;;;;;;;6.38;4.05;;;;;;;22.11;66.09;98505.88;5111946;28;20173;-58
2023/09/19 08:20:17;;;;;;;5.18;3.75;;;;;;;22.35;66.01;98530.28;5111853;28;20207;-58
2023/09/19 08:22:54;;;;;;;6.72;4.95;;;;;;;22.47;64.58;98512.25;5111873;28;20183;-57
2023/09/19 08:25:21;;;;;;;7.35;4.55;;;;;;;22.60;64.23;98504.56;5111950;28;20171;-57
2023/09/19 08:27:48;;;;;;;3.90;3.53;;;;;;;22.68;63.37;98518.47;5111772;28;20189;-57
2023/09/19 08:30:15;;;;;;;7.38;4.53;;;;;;;22.54;63.40;98492.06;5048536;28;20219;-57
2023/09/19 08:32:42;;;;;;;7.85;3.97;;;;;;;22.55;63.04;98502.44;5048810;28;20188;-57
2023/09/19 08:35:09;;;;;;;6.63;3.72;;;;;;;22.67;63.61;98489.66;5048671;28;20687;-57
2023/09/19 08:37:34;;;;;;;4.70;3.88;;;;;;;22.81;63.36;98484.41;5048730;28;20256;-56
2023/09/19 08:40:00;;;;;;;3.95;3.65;;;;;;;23.13;61.57;98512.31;5048492;28;20285;-56
2023/09/19 08:42:25;;;;;;;3.72;3.35;;;;;;;23.08;61.42;98480.34;5048487;28;20173;-57
2023/09/19 08:44:51;;;;;;;8.90;3.95;;;;;;;23.31;60.78;98497.75;5048473;28;20184;-57
2023/09/19 08:47:35;;;;;;;6.60;4.03;;;;;;;23.43;61.40;98493.66;5048592;28;20196;-57
2023/09/19 08:50:18;;;;;;;5.40;3.47;;;;;;;23.46;61.36;98497.75;5048433;28;20571;-57
2023/09/19 08:52:46;;;;;;;5.57;4.20;;;;;;;23.49;60.03;98492.09;5048462;28;20185;-57
2023/09/19 08:55:20;;;;;;;6.35;4.90;;;;;;;23.40;61.40;98494.03;5048350;28;20276;-57
2023/09/19 08:57:48;;;;;;;7.53;4.00;;;;;;;23.30;61.00;98485.56;5048522;28;20223;-57
2023/09/19 09:00:17;;;;;;;6.25;4.13;;;;;;;23.26;61.15;98449.13;5054786;28;20291;-56
2023/09/19 09:02:43;;;;;;;3.70;3.25;;;;;;;23.39;59.93;98467.78;5111243;28;20175;-57
2023/09/19 09:05:12;;;;;;;4.60;3.80;;;;;;;23.51;59.10;98487.44;5111321;28;20163;-56
2023/09/19 09:07:38;;;;;;;4.13;3.38;;;;;;;23.39;58.90;98450.13;5110906;28;20661;-57
2023/09/19 09:10:04;;;;;;;4.13;3.80;;;;;;;23.52;58.78;98460.84;5111178;28;20281;-57
2023/09/19 09:12:30;;;;;;;4.68;3.67;;;;;;;23.81;57.05;98488.00;5111736;28;20194;-57
2023/09/19 09:14:57;;;;;;;5.30;3.22;;;;;;;23.78;57.01;98469.06;5115505;28;20173;-57
2023/09/19 09:17:24;;;;;;;10.35;4.75;;;;;;;23.77;57.31;98450.78;5115421;28;20175;-57
2023/09/19 09:19:53;;;;;;;4.30;3.80;;;;;;;23.92;56.79;98452.41;5115637;28;20170;-57
2023/09/19 09:22:21;;;;;;;10.25;4.63;;;;;;;24.05;56.78;98455.16;5071972;28;20576;-57
2023/09/19 09:24:58;;;;;;;10.45;4.35;;;;;;;24.17;56.55;98460.78;5072346;28;20543;-57
2023/09/19 09:27:24;;;;;;;5.45;4.00;;;;;;;24.22;56.02;98456.56;5072075;28;20230;-56
2023/09/19 09:29:54;;;;;;;5.50;4.25;;;;;;;24.34;55.43;98457.69;5072043;28;20204;-57
2023/09/19 09:32:21;;;;;;;10.30;4.20;;;;;;;24.47;54.74;98474.50;5072112;28;20181;-57
2023/09/19 09:34:58;;;;;;;4.85;3.75;;;;;;;24.56;54.23;98475.97;5072085;28;20352;-57
2023/09/19 09:37:26;;;;;;;4.97;3.83;;;;;;;24.50;53.80;98449.47;5071978;28;20604;-57
2023/09/19 09:39:52;;;;;;;7.55;3.78;;;;;;;24.63;53.86;98468.13;5071763;28;20194;-57
2023/09/19 09:42:31;;;;;;;7.55;3.78;;;;;;;24.77;53.15;98461.91;5071852;28;20180;-57
2023/09/19 09:45:13;;;;;;;8.23;3.83;;;;;;;24.76;52.92;98453.19;5071842;28;20188;-58
2023/09/19 09:47:55;;;;;;;3.90;3.50;;;;;;;24.58;52.47;98437.97;5071600;28;20740;-58
2023/09/19 09:50:29;;;;;;;4.25;3.28;;;;;;;24.56;53.22;98431.00;5071642;28;20227;-57
2023/09/19 09:53:06;;;;;;;4.78;3.00;;;;;;;24.79;53.00;98442.19;5071580;28;20220;-57
2023/09/19 09:56:01;;;;;;;4.60;3.00;;;;;;;24.90;52.52;98444.31;5071573;28;20573;-58
2023/09/19 09:58:31;;;;;;;3.78;3.47;;;;;;;25.04;51.34;98455.78;5071541;28;20733;-58
2023/09/19 10:01:14;;;;;;;3.47;3.15;;;;;;;25.06;51.09;98454.59;5114536;28;20195;-57
2023/09/19 10:03:43;;;;;;;3.92;3.25;;;;;;;25.05;51.07;98442.38;5114771;28;20176;-58
2023/09/19 10:06:25;;;;;;;4.00;3.22;;;;;;;25.19;50.87;98444.06;5114658;28;20660;-58
2023/09/19 10:09:13;;;;;;;7.70;3.08;;;;;;;25.14;51.17;98419.19;5114321;28;20593;-58
2023/09/19 10:11:44;;;;;;;5.95;3.20;;;;;;;25.24;51.26;98412.53;5114469;28;20179;-58
2023/09/19 10:14:18;;;;;;;4.05;3.65;;;;;;;25.44;50.30;98437.31;5114427;28;20243;-57
2023/09/19 10:16:48;;;;;;;3.50;3.13;;;;;;;25.42;49.83;98409.38;5114447;28;20176;-58
2023/09/19 10:19:33;;;;;;;4.30;3.85;;;;;;;25.62;49.91;98413.72;5114288;28;20208;-58
2023/09/19 10:22:02;;;;;;;5.63;3.40;;;;;;;25.73;49.12;98399.84;5114008;28;20582;-59
2023/09/19 10:24:28;;;;;;;3.85;3.55;;;;;;;25.72;48.43;98414.13;5113511;28;20190;-60
2023/09/19 10:26:55;;;;;;;5.25;3.70;;;;;;;25.39;49.19;98418.53;5114265;28;20295;-58
2023/09/19 10:29:21;;;;;;;6.13;3.42;;;;;;;25.51;48.96;98413.47;5050899;28;20196;-58
2023/09/19 10:31:48;;;;;;;3.60;3.30;;;;;;;25.48;48.55;98406.72;5051154;28;20261;-56
2023/09/19 10:34:17;;;;;;;3.50;3.20;;;;;;;25.84;48.72;98438.25;5051027;28;20283;-57
2023/09/19 10:36:49;;;;;;;3.70;3.00;;;;;;;26.09;47.45;98413.63;5050948;28;20248;-57
2023/09/19 10:39:19;;;;;;;7.28;3.63;;;;;;;26.45;47.92;98426.50;5030664;28;20186;-56
2023/09/19 10:41:53;;;;;;;3.47;3.15;;;;;;;26.55;46.11;98393.25;5030737;28;20206;-57
2023/09/19 10:44:23;;;;;;;4.05;3.53;;;;;;;26.77;44.86;98399.94;5030863;28;20184;-57
2023/09/19 10:46:51;;;;;;;3.83;3.53;;;;;;;26.81;44.93;98401.16;5030924;28;20221;-57
2023/09/19 10:49:17;;;;;;;3.58;3.28;;;;;;;26.92;45.16;98408.50;5030715;28;20394;-57
2023/09/19 10:51:47;;;;;;;3.92;3.55;;;;;;;26.76;45.13;98377.06;5030597;28;20186;-57
2023/09/19 10:54:15;;;;;;;9.35;4.00;;;;;;;26.63;45.16;98373.63;5030587;28;20196;-57
2023/09/19 10:56:51;;;;;;;5.35;3.45;;;;;;;26.32;46.37;98390.19;5030593;28;20178;-57
2023/09/19 10:59:21;;;;;;;10.07;3.67;;;;;;;26.24;46.22;98371.78;5034423;28;20186;-57
2023/09/19 11:01:53;;;;;;;5.30;3.33;;;;;;;26.31;45.66;98383.22;5090612;28;20207;-57
2023/09/19 11:04:30;;;;;;;7.20;3.78;;;;;;;26.50;45.87;98374.44;5090746;28;20238;-57
2023/09/19 11:07:08;;;;;;;5.68;3.90;;;;;;;26.57;46.14;98354.03;5090572;28;20282;-57
2023/09/19 11:09:51;;;;;;;7.05;3.28;;;;;;;27.06;44.92;98394.16;5095562;28;20296;-57
2023/09/19 11:12:26;;;;;;;5.72;3.55;;;;;;;27.16;44.51;98389.25;5113286;28;20183;-56
2023/09/19 11:14:52;;;;;;;6.13;3.00;;;;;;;27.12;43.39;98350.78;5113360;28;20200;-57
2023/09/19 11:17:21;;;;;;;7.25;3.47;;;;;;;27.43;43.55;98380.16;5113214;28;20171;-57
2023/09/19 11:22:48;;;;;;;5.47;3.80;;;;;;;27.61;43.42;98377.59;5050128;28;20293;-56
2023/09/19 11:25:34;;;;;;;5.40;3.65;;;;;;;27.55;43.34;98377.63;5049960;28;20320;-57
2023/09/19 11:28:18;;;;;;;7.22;3.55;;;;;;;27.43;42.90;98364.19;5050244;28;20188;-57
2023/09/19 11:30:49;;;;;;;8.68;3.83;;;;;;;27.42;43.62;98357.25;5050119;28;20234;-58
2023/09/19 11:33:20;;;;;;;5.68;3.40;;;;;;;27.61;43.44;98366.97;5049837;28;20679;-58
2023/09/19 11:36:09;;;;;;;9.02;3.55;;;;;;;27.88;41.71;98362.31;5049192;28;20181;-58
2023/09/19 11:38:44;;;;;;;7.50;3.20;;;;;;;27.96;41.56;98359.38;5049740;28;20211;-58
2023/09/19 11:41:22;;;;;;;8.45;3.80;;;;;;;28.05;41.79;98339.47;5049660;28;20635;-58
2023/09/19 11:44:16;;;;;;;7.88;4.55;;;;;;;27.99;42.35;98322.50;5049712;28;20177;-58
2023/09/19 11:46:50;;;;;;;8.35;4.55;;;;;;;28.16;41.44;98309.50;5049525;28;20177;-57